Terminal Aerodrome Forecast
Issued by NWS Shreveport, LA

Home | Current Version | Previous Version | Text Only | Print | Product List | Glossary On
Versions: 1 2 3 4 5 6 7 8 9 10 11 12
000
FTUS44 KSHV 031745
TAFTYR
TAF
KTYR 031745Z 0318/0418 VRB06KT P6SM SCT070 SCT130
      TEMPO 0318/0322 10007KT BKN070 BKN130
     FM032200 11007KT P6SM SCT070 BKN100
     FM040000 11006KT P6SM BKN100
     FM041500 23007KT P6SM BKN250=

USA.gov is the U.S. government's official web portal to all federal, state and local government web resources and services.